createdAt,value
2018-03-15T00:02:08.090Z,10.20
2018-03-15T00:04:36.945Z,10.50
2018-03-15T00:07:05.799Z,12.37
2018-03-15T00:09:34.714Z,11.53
2018-03-15T00:12:03.562Z,10.40
2018-03-15T00:14:32.393Z,10.73
2018-03-15T00:17:01.556Z,13.50
2018-03-15T00:19:30.407Z,10.53
2018-03-15T00:21:59.258Z,9.63
2018-03-15T00:24:29.564Z,10.17
2018-03-15T00:26:58.415Z,10.73
2018-03-15T00:29:27.449Z,10.60
2018-03-15T00:31:56.351Z,9.50
2018-03-15T00:34:25.185Z,10.63
2018-03-15T00:36:54.096Z,11.97
2018-03-15T00:39:22.942Z,13.27
2018-03-15T00:41:51.791Z,11.07
2018-03-15T00:44:20.695Z,12.43
2018-03-15T00:46:50.265Z,11.47
2018-03-15T00:49:19.141Z,11.03
2018-03-15T00:51:48.028Z,11.67
2018-03-15T00:54:16.978Z,12.97
2018-03-15T00:56:46.031Z,12.63
2018-03-15T00:59:14.894Z,11.83
2018-03-15T01:01:43.734Z,11.03
2018-03-15T01:04:12.851Z,14.77
2018-03-15T01:06:41.687Z,11.87
2018-03-15T01:09:10.595Z,13.07
2018-03-15T01:11:41.058Z,11.83
2018-03-15T01:14:09.902Z,13.00
2018-03-15T01:16:38.783Z,12.30
2018-03-15T01:19:08.847Z,12.77
2018-03-15T01:21:37.707Z,11.33
2018-03-15T01:24:06.568Z,11.77
2018-03-15T01:26:35.474Z,12.23
2018-03-15T01:29:04.325Z,12.17
2018-03-15T01:31:33.179Z,13.27
2018-03-15T01:34:02.102Z,13.97
2018-03-15T01:36:31.052Z,12.47
2018-03-15T01:38:59.905Z,14.20
2018-03-15T01:41:28.806Z,11.93
2018-03-15T01:43:57.681Z,11.67
2018-03-15T01:46:26.666Z,12.73
2018-03-15T01:48:56.387Z,13.83
2018-03-15T01:51:25.263Z,12.70
2018-03-15T01:53:54.118Z,13.10
2018-03-15T01:56:24.436Z,17.87
2018-03-15T01:58:53.283Z,13.67
2018-03-15T02:01:22.143Z,16.23
2018-03-15T02:03:51.034Z,13.63
2018-03-15T02:06:19.883Z,14.50
2018-03-15T02:08:49.036Z,14.77
2018-03-15T02:11:17.891Z,14.20
2018-03-15T02:13:49.273Z,15.50
2018-03-15T02:16:18.179Z,14.63
2018-03-15T02:18:47.035Z,15.50
2018-03-15T02:21:16.000Z,15.53
2018-03-15T02:23:44.975Z,15.27
2018-03-15T02:26:13.829Z,13.33
2018-03-15T02:28:42.686Z,16.57
2018-03-15T02:31:12.952Z,15.73
2018-03-15T02:33:41.830Z,17.37
2018-03-15T02:36:10.763Z,16.97
2018-03-15T02:38:39.931Z,16.60
2018-03-15T02:41:08.779Z,16.60
2018-03-15T02:43:37.644Z,15.57
2018-03-15T02:46:06.556Z,16.37
2018-03-15T02:48:35.912Z,16.70
2018-03-15T02:51:05.389Z,17.00
2018-03-15T02:53:34.308Z,15.37
2018-03-15T02:56:03.162Z,17.63
2018-03-15T02:58:32.063Z,16.47
2018-03-15T03:01:00.955Z,17.80
2018-03-15T03:03:29.802Z,16.33
2018-03-15T03:05:58.666Z,20.97
2018-03-15T03:08:31.712Z,16.50
2018-03-15T03:11:00.556Z,17.23
2018-03-15T03:13:30.746Z,17.47
2018-03-15T03:15:59.591Z,15.73
2018-03-15T03:18:28.440Z,16.57
2018-03-15T03:20:57.626Z,18.43
2018-03-15T03:23:26.662Z,18.43
2018-03-15T03:25:55.735Z,18.93
2018-03-15T03:28:24.628Z,22.27
2018-03-15T03:30:53.482Z,18.43
2018-03-15T03:33:22.336Z,20.43
2018-03-15T03:35:51.236Z,20.17
2018-03-15T03:38:20.097Z,19.50
2018-03-15T03:40:48.990Z,20.10
2018-03-15T03:43:18.160Z,20.23
2018-03-15T03:45:47.009Z,21.80
2018-03-15T03:48:17.277Z,22.63
2018-03-15T03:50:46.679Z,19.97
2018-03-15T03:53:16.581Z,24.17
2018-03-15T03:55:45.473Z,22.47
2018-03-15T03:58:14.329Z,22.40
2018-03-15T04:00:43.570Z,23.57
2018-03-15T04:03:12.427Z,25.50
2018-03-15T04:05:41.278Z,23.13
2018-03-15T04:08:11.274Z,24.60
2018-03-15T04:10:40.131Z,21.77
2018-03-15T04:13:09.006Z,24.80
2018-03-15T04:15:37.871Z,23.13
2018-03-15T04:18:06.786Z,26.87
2018-03-15T04:20:35.642Z,25.00
2018-03-15T04:23:04.533Z,24.83
2018-03-15T04:25:34.435Z,26.90
2018-03-15T04:28:03.290Z,26.67
2018-03-15T04:30:32.211Z,26.13
2018-03-15T04:33:01.134Z,26.13
2018-03-15T04:35:30.053Z,24.63
2018-03-15T04:37:59.745Z,26.63
2018-03-15T04:40:29.030Z,25.60
2018-03-15T04:42:57.895Z,26.90
2018-03-15T04:45:26.738Z,29.07
2018-03-15T04:47:55.898Z,26.60
2018-03-15T04:50:24.752Z,26.00
2018-03-15T04:52:53.599Z,27.37
2018-03-15T04:55:23.308Z,27.80
2018-03-15T04:57:52.271Z,29.47
2018-03-15T05:00:21.135Z,28.30
2018-03-15T05:02:51.040Z,27.33
2018-03-15T05:05:19.882Z,31.90
2018-03-15T05:07:48.739Z,29.97
2018-03-15T05:10:17.790Z,30.00
2018-03-15T05:12:46.656Z,27.40
2018-03-15T05:15:15.506Z,30.13
2018-03-15T05:17:44.722Z,29.63
2018-03-15T05:20:13.586Z,28.63
2018-03-15T05:22:42.451Z,29.67
2018-03-15T05:25:11.349Z,29.00
2018-03-15T05:27:40.216Z,29.70
2018-03-15T05:30:09.291Z,29.63
2018-03-15T05:32:38.154Z,28.10
2018-03-15T05:35:07.010Z,28.57
2018-03-15T05:37:35.919Z,33.63
2018-03-15T05:40:04.787Z,31.47
2018-03-15T05:42:33.630Z,31.80
2018-03-15T05:45:03.444Z,35.03
2018-03-15T05:47:32.310Z,32.40
2018-03-15T05:50:01.171Z,30.60
2018-03-15T05:52:30.094Z,32.77
2018-03-15T05:54:58.944Z,33.30
2018-03-15T05:57:28.407Z,31.27
2018-03-15T05:59:57.523Z,32.27
2018-03-15T06:02:26.370Z,33.07
2018-03-15T06:04:55.227Z,31.83
2018-03-15T06:07:24.090Z,30.20
2018-03-15T06:09:52.940Z,30.50
2018-03-15T06:12:22.075Z,30.83
2018-03-15T06:14:52.913Z,30.83
2018-03-15T06:17:21.775Z,30.80
2018-03-15T06:19:50.697Z,29.17
2018-03-15T06:22:19.555Z,31.07
2018-03-15T06:24:48.411Z,32.17
2018-03-15T06:27:17.424Z,30.37
2018-03-15T06:29:46.279Z,29.27
2018-03-15T06:32:15.140Z,29.70
2018-03-15T06:34:44.095Z,29.40
2018-03-15T06:37:12.958Z,29.70
2018-03-15T06:39:41.898Z,30.50
2018-03-15T06:42:10.818Z,29.03
2018-03-15T06:44:39.676Z,28.43
2018-03-15T06:47:08.530Z,28.37
2018-03-15T06:49:37.687Z,26.53
2018-03-15T06:52:06.580Z,25.93
2018-03-15T06:54:35.391Z,25.73
2018-03-15T06:57:04.267Z,25.23
2018-03-15T06:59:33.122Z,28.03
2018-03-15T07:02:02.350Z,24.60
2018-03-15T07:04:31.203Z,27.10
2018-03-15T07:07:00.056Z,27.17
2018-03-15T07:09:29.129Z,26.97
2018-03-15T07:11:57.976Z,24.70
2018-03-15T07:14:26.862Z,24.23
2018-03-15T07:16:56.522Z,27.93
2018-03-15T07:19:25.438Z,24.50
2018-03-15T07:21:54.955Z,24.73
2018-03-15T07:24:23.822Z,24.70
2018-03-15T07:26:52.788Z,23.87
2018-03-15T07:29:21.644Z,22.27
2018-03-15T07:31:50.500Z,21.77
2018-03-15T07:34:19.394Z,26.73
2018-03-15T07:36:48.242Z,20.87
2018-03-15T07:39:17.240Z,21.23
2018-03-15T07:41:46.680Z,22.40
2018-03-15T07:44:15.547Z,20.67
2018-03-15T07:46:44.394Z,21.33
2018-03-15T07:49:13.370Z,21.07
2018-03-15T07:51:42.251Z,20.63
2018-03-15T07:54:11.107Z,19.33
2018-03-15T07:56:40.210Z,19.73
2018-03-15T07:59:10.988Z,18.53
2018-03-15T08:01:39.839Z,21.33
2018-03-15T08:04:08.782Z,19.77
2018-03-15T08:06:37.685Z,19.60
2018-03-15T08:09:06.529Z,21.63
2018-03-15T08:11:35.727Z,17.37
2018-03-15T08:14:04.600Z,17.97
2018-03-15T08:16:33.461Z,17.67
2018-03-15T08:19:02.776Z,17.60
2018-03-15T08:21:31.595Z,16.40
2018-03-15T08:24:00.672Z,15.93
2018-03-15T08:26:29.739Z,16.60
2018-03-15T08:28:58.587Z,16.43
2018-03-15T08:31:27.516Z,15.90
2018-03-15T08:33:56.399Z,17.07
2018-03-15T08:36:25.247Z,17.47
2018-03-15T08:38:54.407Z,15.53
2018-03-15T08:41:23.250Z,14.53
2018-03-15T08:43:52.115Z,14.33
2018-03-15T08:46:21.079Z,14.67
2018-03-15T08:48:49.947Z,14.17
2018-03-15T08:51:19.384Z,15.87
2018-03-15T08:53:48.247Z,13.80
2018-03-15T08:56:17.722Z,13.37
2018-03-15T08:58:46.605Z,13.67
2018-03-15T09:01:15.535Z,15.40
2018-03-15T09:03:44.882Z,13.50
2018-03-15T09:06:13.993Z,12.23
2018-03-15T09:08:42.890Z,12.90
2018-03-15T09:11:11.715Z,12.47
2018-03-15T09:13:40.615Z,12.27
2018-03-15T09:16:11.591Z,12.13
2018-03-15T09:18:40.486Z,13.50
2018-03-15T09:21:10.587Z,13.23
2018-03-15T09:23:39.461Z,13.67
2018-03-15T09:26:08.278Z,12.17
2018-03-15T09:28:37.183Z,13.37
2018-03-15T09:31:06.129Z,12.23
2018-03-15T09:33:35.976Z,11.93
2018-03-15T09:36:05.235Z,12.60
2018-03-15T09:38:34.082Z,11.93
2018-03-15T09:41:02.950Z,11.53
2018-03-15T09:43:31.825Z,11.33
2018-03-15T09:46:00.688Z,11.70
2018-03-15T09:48:29.584Z,11.07
2018-03-15T09:50:58.432Z,11.10
2018-03-15T09:53:27.375Z,10.83
2018-03-15T09:55:56.271Z,10.97
2018-03-15T09:58:25.131Z,9.87
2018-03-15T10:00:53.991Z,11.07
2018-03-15T10:03:23.187Z,10.30
2018-03-15T10:05:52.088Z,10.53
2018-03-15T10:08:20.887Z,11.77
2018-03-15T10:10:49.748Z,11.43
2018-03-15T10:13:21.208Z,11.43
2018-03-15T10:15:50.186Z,10.20
2018-03-15T10:18:19.040Z,10.57
2018-03-15T10:20:47.894Z,12.53
2018-03-15T10:23:16.764Z,11.00
2018-03-15T10:25:45.647Z,10.93
2018-03-15T10:28:14.564Z,9.63
2018-03-15T10:30:43.506Z,11.03
2018-03-15T10:33:18.299Z,10.87
2018-03-15T10:35:47.163Z,10.07
2018-03-15T10:38:16.022Z,10.60
2018-03-15T10:40:44.878Z,11.20
2018-03-15T10:43:13.715Z,10.43
2018-03-15T10:45:42.625Z,11.30
2018-03-15T10:48:11.481Z,10.87
2018-03-15T10:50:40.335Z,10.83
2018-03-15T10:53:09.228Z,11.87
2018-03-15T10:55:38.089Z,10.67
2018-03-15T10:58:06.971Z,10.83
2018-03-15T11:00:41.643Z,10.67
2018-03-15T11:03:16.311Z,10.83
2018-03-15T11:05:46.070Z,11.13
2018-03-15T11:08:21.585Z,10.37
2018-03-15T11:10:50.438Z,11.97
2018-03-15T11:13:19.282Z,11.20
2018-03-15T11:15:48.243Z,12.13
2018-03-15T11:18:17.094Z,10.67
2018-03-15T11:20:45.994Z,11.30
2018-03-15T11:23:14.848Z,10.37
2018-03-15T11:25:43.719Z,12.30
2018-03-15T11:28:13.222Z,10.80
2018-03-15T11:30:42.080Z,10.57
2018-03-15T11:33:10.928Z,11.73
2018-03-15T11:35:40.114Z,13.07
2018-03-15T11:38:08.959Z,9.57
2018-03-15T11:40:38.011Z,10.30
2018-03-15T11:43:06.879Z,9.03
2018-03-15T11:45:35.826Z,8.60
2018-03-15T11:48:05.072Z,9.30
2018-03-15T11:50:33.941Z,9.30
2018-03-15T11:53:02.807Z,9.67
2018-03-15T11:55:31.790Z,8.17
2018-03-15T11:58:00.698Z,10.03
2018-03-15T12:00:29.604Z,9.20
2018-03-15T12:02:59.458Z,8.93
2018-03-15T12:05:28.502Z,8.83
2018-03-15T12:07:57.378Z,10.30
2018-03-15T12:10:26.210Z,8.63
2018-03-15T12:12:57.816Z,8.33
2018-03-15T12:15:26.676Z,9.20
2018-03-15T12:17:55.535Z,8.50
2018-03-15T12:20:24.492Z,11.07
2018-03-15T12:22:53.332Z,8.57
2018-03-15T12:25:22.353Z,10.47
2018-03-15T12:27:51.673Z,9.67
2018-03-15T12:30:20.542Z,10.40
2018-03-15T12:32:49.381Z,9.73
2018-03-15T12:35:18.254Z,9.13
2018-03-15T12:37:47.190Z,10.20
2018-03-15T12:40:16.413Z,9.87
2018-03-15T12:42:45.247Z,9.17
2018-03-15T12:45:14.105Z,10.87
2018-03-15T12:47:43.012Z,9.87
2018-03-15T12:50:11.855Z,11.27
2018-03-15T12:52:41.024Z,10.33
2018-03-15T12:55:09.990Z,11.13
2018-03-15T12:57:38.838Z,9.93
2018-03-15T13:00:07.719Z,11.93
2018-03-15T13:02:36.599Z,11.13
2018-03-15T13:05:05.695Z,10.50
2018-03-15T13:07:34.574Z,10.33
2018-03-15T13:10:03.456Z,11.87
2018-03-15T13:12:33.129Z,10.93
2018-03-15T13:15:02.008Z,11.87
2018-03-15T13:17:30.870Z,12.33
2018-03-15T13:19:59.823Z,12.23
2018-03-15T13:22:28.740Z,11.47
2018-03-15T13:24:57.808Z,13.70
2018-03-15T13:27:26.688Z,11.13
2018-03-15T13:29:55.535Z,11.90
2018-03-15T13:32:24.988Z,10.90
2018-03-15T13:34:53.817Z,11.10
2018-03-15T13:37:22.690Z,12.30
2018-03-15T13:39:51.591Z,11.13
2018-03-15T13:42:20.455Z,11.37
2018-03-15T13:44:49.314Z,12.57
2018-03-15T13:47:18.243Z,11.20
2018-03-15T13:49:47.112Z,12.00
2018-03-15T13:52:15.993Z,13.17
2018-03-15T13:54:45.183Z,11.57
2018-03-15T13:57:14.148Z,11.53
2018-03-15T13:59:44.604Z,11.43
2018-03-15T14:02:17.499Z,13.30
2018-03-15T14:04:46.377Z,10.93
2018-03-15T14:07:15.274Z,13.30
2018-03-15T14:09:44.127Z,11.90
2018-03-15T14:12:13.020Z,12.83
2018-03-15T14:14:42.391Z,11.83
2018-03-15T14:17:11.262Z,11.83
2018-03-15T14:19:40.153Z,10.93
2018-03-15T14:22:09.231Z,11.43
2018-03-15T14:24:38.056Z,15.20
2018-03-15T14:27:06.919Z,14.63
2018-03-15T14:29:35.845Z,12.47
2018-03-15T14:32:04.663Z,11.50
2018-03-15T14:34:33.566Z,12.10
2018-03-15T14:37:02.410Z,12.73
2018-03-15T14:39:31.270Z,11.30
2018-03-15T14:42:00.178Z,12.87
2018-03-15T14:44:29.057Z,13.97
2018-03-15T14:46:57.922Z,11.97
2018-03-15T14:49:30.817Z,11.10
2018-03-15T14:51:59.951Z,12.27
2018-03-15T14:54:29.140Z,11.30
2018-03-15T14:56:58.007Z,12.27
2018-03-15T14:59:26.970Z,11.77
2018-03-15T15:01:57.329Z,13.57
2018-03-15T15:04:26.183Z,16.23
2018-03-15T15:06:55.036Z,13.97
2018-03-15T15:09:24.399Z,12.23
2018-03-15T15:11:54.021Z,12.60
2018-03-15T15:14:22.890Z,14.20
2018-03-15T15:16:52.460Z,16.03
2018-03-15T15:19:21.306Z,14.07
2018-03-15T15:21:50.183Z,17.73
2018-03-15T15:24:19.051Z,16.40
2018-03-15T15:26:48.047Z,18.50
2018-03-15T15:29:16.907Z,21.07
2018-03-15T15:31:45.777Z,16.07
2018-03-15T15:34:15.607Z,19.50
2018-03-15T15:36:44.452Z,16.37
2018-03-15T15:39:13.324Z,16.57
2018-03-15T15:41:42.363Z,19.13
2018-03-15T15:44:11.219Z,16.90
2018-03-15T15:46:40.076Z,16.33
2018-03-15T15:49:08.995Z,20.30
2018-03-15T15:51:37.851Z,18.43
2018-03-15T15:54:06.829Z,20.80
2018-03-15T15:56:37.143Z,16.07
2018-03-15T15:59:06.028Z,15.50
2018-03-15T16:01:34.916Z,16.50
2018-03-15T16:04:03.802Z,17.60
2018-03-15T16:06:32.659Z,14.40
2018-03-15T16:09:01.601Z,17.20
2018-03-15T16:11:30.484Z,16.43
2018-03-15T16:14:00.382Z,19.77
2018-03-15T16:16:29.306Z,18.37
2018-03-15T16:18:58.181Z,20.20
2018-03-15T16:21:27.060Z,17.37
2018-03-15T16:23:56.016Z,19.37
2018-03-15T16:26:24.880Z,18.67
2018-03-15T16:28:53.821Z,15.67
2018-03-15T16:31:22.843Z,19.93
2018-03-15T16:33:51.703Z,20.93
2018-03-15T16:36:20.568Z,18.17
2018-03-15T16:38:50.944Z,24.73
2018-03-15T16:41:19.840Z,22.50
2018-03-15T16:43:48.682Z,21.87
2018-03-15T16:46:17.830Z,22.00
2018-03-15T16:48:46.699Z,19.83
2018-03-15T16:51:15.576Z,26.47
2018-03-15T16:53:44.774Z,27.23
2018-03-15T16:56:13.647Z,26.53
2018-03-15T16:58:44.323Z,22.97
2018-03-15T17:01:13.364Z,22.40
2018-03-15T17:03:42.264Z,25.47
2018-03-15T17:06:11.169Z,29.97
2018-03-15T17:08:40.035Z,23.53
2018-03-15T17:11:08.906Z,20.83
2018-03-15T17:13:37.835Z,21.70
2018-03-15T17:16:07.398Z,19.90
2018-03-15T17:18:36.267Z,21.60
2018-03-15T17:21:05.163Z,20.37
2018-03-15T17:23:34.011Z,22.73
2018-03-15T17:26:02.887Z,24.23
2018-03-15T17:28:31.821Z,20.63
2018-03-15T17:31:00.683Z,19.90
2018-03-15T17:33:29.559Z,18.47
2018-03-15T17:35:59.560Z,20.27
2018-03-15T17:38:28.393Z,21.83
2018-03-15T17:40:58.228Z,23.00
2018-03-15T17:43:27.107Z,30.87
2018-03-15T17:45:57.003Z,27.70
2018-03-15T17:48:25.891Z,27.13
2018-03-15T17:50:54.767Z,23.07
2018-03-15T17:53:23.890Z,22.43
2018-03-15T17:55:52.785Z,24.23
2018-03-15T17:58:22.841Z,22.93
2018-03-15T18:00:52.564Z,27.40
2018-03-15T18:03:21.447Z,30.03
2018-03-15T18:05:50.376Z,25.37
2018-03-15T18:08:20.115Z,24.20
2018-03-15T18:10:48.975Z,25.30
2018-03-15T18:13:17.870Z,26.77
2018-03-15T18:15:47.378Z,30.20
2018-03-15T18:18:16.268Z,25.80
2018-03-15T18:20:45.128Z,30.57
2018-03-15T18:23:13.995Z,27.90
2018-03-15T18:25:42.899Z,36.37
2018-03-15T18:28:11.815Z,36.93
2018-03-15T18:30:40.990Z,40.23
2018-03-15T18:33:09.826Z,36.47
2018-03-15T18:35:38.699Z,28.70
2018-03-15T18:38:07.635Z,26.20
2018-03-15T18:40:37.401Z,39.17
2018-03-15T18:43:06.273Z,19.33
2018-03-15T18:45:36.186Z,26.03
2018-03-15T18:48:05.082Z,23.40
2018-03-15T18:50:33.955Z,29.07
2018-03-15T18:53:03.654Z,26.63
2018-03-15T18:55:32.752Z,33.57
2018-03-15T18:58:01.618Z,34.97
2018-03-15T19:00:30.495Z,35.53
2018-03-15T19:03:00.109Z,35.83
2018-03-15T19:05:28.966Z,41.43
2018-03-15T19:07:57.886Z,39.93
2018-03-15T19:10:27.404Z,36.47
2018-03-15T19:12:57.729Z,34.27
2018-03-15T19:15:26.633Z,36.87
2018-03-15T19:17:55.512Z,32.43
2018-03-15T19:20:24.365Z,37.57
2018-03-15T19:22:53.290Z,41.20
2018-03-15T19:25:22.161Z,36.63
2018-03-15T19:27:51.206Z,20.80
2018-03-15T19:30:21.147Z,20.90
2018-03-15T19:32:50.063Z,22.83
2018-03-15T19:35:18.931Z,23.47
2018-03-15T19:37:48.125Z,22.10
2018-03-15T19:40:17.820Z,22.77
2018-03-15T19:42:46.750Z,28.43
2018-03-15T19:45:15.732Z,27.53
2018-03-15T19:47:44.589Z,25.33
2018-03-15T19:50:14.115Z,26.73
2018-03-15T19:52:42.985Z,28.97
2018-03-15T19:55:11.860Z,24.10
2018-03-15T19:57:40.925Z,24.30
2018-03-15T20:00:09.780Z,23.27
2018-03-15T20:02:39.631Z,27.43
2018-03-15T20:05:08.558Z,25.20
2018-03-15T20:07:37.444Z,22.87
2018-03-15T20:10:06.475Z,29.70
2018-03-15T20:12:35.341Z,21.47
2018-03-15T20:15:05.255Z,21.90
2018-03-15T20:17:34.130Z,18.80
2018-03-15T20:20:03.022Z,21.30
2018-03-15T20:22:39.690Z,21.97
2018-03-15T20:25:08.539Z,22.67
2018-03-15T20:27:43.128Z,19.30
2018-03-15T20:30:11.996Z,22.67
2018-03-15T20:32:46.873Z,22.83
2018-03-15T20:35:15.763Z,20.57
2018-03-15T20:37:44.613Z,20.00
2018-03-15T20:40:19.450Z,19.53
2018-03-15T20:42:48.379Z,23.03
2018-03-15T20:45:23.027Z,24.40
2018-03-15T20:47:57.574Z,20.70
2018-03-15T20:50:26.592Z,21.03
2018-03-15T20:52:55.480Z,20.93
2018-03-15T20:55:24.383Z,19.60
2018-03-15T20:57:54.120Z,20.87
2018-03-15T21:00:23.010Z,22.87
2018-03-15T21:02:51.934Z,24.30
2018-03-15T21:05:20.937Z,20.07
2018-03-15T21:07:49.820Z,20.67
2018-03-15T21:10:18.680Z,20.23
2018-03-15T21:12:47.588Z,19.97
2018-03-15T21:15:18.708Z,19.57
2018-03-15T21:17:47.555Z,19.03
2018-03-15T21:20:16.416Z,16.90
2018-03-15T21:22:45.347Z,20.30
2018-03-15T21:25:14.203Z,19.17
2018-03-15T21:27:43.055Z,18.23
2018-03-15T21:30:12.364Z,18.07
2018-03-15T21:32:41.219Z,19.13
2018-03-15T21:35:10.043Z,18.53
2018-03-15T21:37:38.942Z,18.63
2018-03-15T21:40:07.805Z,18.60
2018-03-15T21:42:37.230Z,22.53
2018-03-15T21:45:06.077Z,22.50
2018-03-15T21:47:34.943Z,21.23
2018-03-15T21:50:03.848Z,24.30
2018-03-15T21:52:32.721Z,26.07
2018-03-15T21:55:02.528Z,20.50
2018-03-15T21:57:31.395Z,19.47
2018-03-15T22:00:00.247Z,19.60
2018-03-15T22:02:29.502Z,17.33
2018-03-15T22:04:58.416Z,17.20
2018-03-15T22:07:27.277Z,14.93
2018-03-15T22:09:56.249Z,13.83
2018-03-15T22:12:25.186Z,12.20
2018-03-15T22:14:53.986Z,11.27
2018-03-15T22:17:23.211Z,11.77
2018-03-15T22:19:52.070Z,10.57
2018-03-15T22:22:20.936Z,10.33
2018-03-15T22:24:50.147Z,9.57
2018-03-15T22:27:19.115Z,8.97
2018-03-15T22:29:47.977Z,8.33
2018-03-15T22:32:17.399Z,7.43
2018-03-15T22:34:46.253Z,6.90
2018-03-15T22:37:15.147Z,6.50
2018-03-15T22:39:44.021Z,6.47
2018-03-15T22:42:13.171Z,6.90
2018-03-15T22:44:42.214Z,6.87
2018-03-15T22:47:11.074Z,6.77
2018-03-15T22:49:41.234Z,5.53
2018-03-15T22:52:10.043Z,6.33
2018-03-15T22:54:38.935Z,5.80
2018-03-15T22:57:07.787Z,6.63
2018-03-15T22:59:36.704Z,5.80
2018-03-15T23:02:05.559Z,6.20
2018-03-15T23:04:34.614Z,5.30
2018-03-15T23:07:04.117Z,6.40
2018-03-15T23:09:32.965Z,5.60
2018-03-15T23:12:01.821Z,5.53
2018-03-15T23:14:32.032Z,6.43
2018-03-15T23:17:00.916Z,5.17
2018-03-15T23:19:29.762Z,6.10
2018-03-15T23:21:58.999Z,5.50
2018-03-15T23:24:28.331Z,5.37
2018-03-15T23:26:57.206Z,5.40
2018-03-15T23:29:26.110Z,8.43
2018-03-15T23:31:54.972Z,5.90
2018-03-15T23:34:24.395Z,6.20
2018-03-15T23:36:53.715Z,5.83
2018-03-15T23:39:22.577Z,6.30
2018-03-15T23:41:51.447Z,7.17
2018-03-15T23:44:20.330Z,6.63
2018-03-15T23:46:49.914Z,6.80
2018-03-15T23:49:19.171Z,6.03
2018-03-15T23:51:48.014Z,7.00
2018-03-15T23:54:16.871Z,7.00
2018-03-15T23:56:45.771Z,6.90
2018-03-15T23:59:15.310Z,6.90
